Time;durP1;ratioP1;P1;durP2;ratioP2;P2;SDS_P1;SDS_P2;PMS_P1;PMS_P2;Temp;Humidity;BMP_temperature;BMP_pressure;BME280_temperature;BME280_humidity;BME280_pressure;Samples;Min_cycle;Max_cycle;Signal;HPM_P1;HPM_P2
2023/08/28 00:01:46;;;;;;;2.70;1.60;;;;;;;22.70;66.56;99912.31;5088719;28;20206;-62
2023/08/28 00:04:11;;;;;;;2.47;1.37;;;;;;;22.69;66.55;99902.88;5088988;28;20636;-62
2023/08/28 00:06:37;;;;;;;2.70;1.67;;;;;;;22.69;66.25;99897.13;5068438;28;20186;-62
2023/08/28 00:09:03;;;;;;;2.60;1.50;;;;;;;22.70;66.47;99904.50;5087611;28;20178;-62
2023/08/28 00:11:28;;;;;;;2.17;1.27;;;;;;;22.69;66.67;99902.03;5090066;28;20245;-62
2023/08/28 00:13:54;;;;;;;4.60;1.53;;;;;;;22.68;66.42;99889.69;5088306;28;20412;-61
2023/08/28 00:16:19;;;;;;;4.20;1.77;;;;;;;22.68;66.30;99895.44;5069840;28;20228;-62
2023/08/28 00:18:45;;;;;;;4.20;1.57;;;;;;;22.68;66.30;99886.81;5098993;28;20178;-62
2023/08/28 00:21:10;;;;;;;5.43;1.70;;;;;;;22.68;66.57;99898.34;5108289;28;20225;-61
2023/08/28 00:23:37;;;;;;;3.77;1.60;;;;;;;22.69;66.29;99902.88;5108356;28;20205;-62
2023/08/28 00:26:03;;;;;;;4.00;1.37;;;;;;;22.68;66.75;99898.34;5107710;28;20814;-62
2023/08/28 00:28:28;;;;;;;5.50;1.60;;;;;;;22.68;66.53;99901.22;5091834;28;20232;-62
2023/08/28 00:30:53;;;;;;;3.60;1.67;;;;;;;22.69;66.40;99899.16;5086550;28;20178;-62
2023/08/28 00:33:19;;;;;;;2.50;1.40;;;;;;;22.68;66.41;99900.41;5094816;28;20253;-62
2023/08/28 00:35:44;;;;;;;2.53;1.50;;;;;;;22.68;66.63;99898.34;5103096;28;20200;-62
2023/08/28 00:38:10;;;;;;;2.70;1.53;;;;;;;22.67;66.11;99896.69;5114959;28;20181;-62
2023/08/28 00:40:40;;;;;;;2.57;1.50;;;;;;;22.67;66.19;99895.91;5106877;28;20236;-62
2023/08/28 00:43:06;;;;;;;5.07;1.70;;;;;;;22.66;66.69;99897.94;5103727;28;20239;-61
2023/08/28 00:45:31;;;;;;;4.87;1.67;;;;;;;22.65;66.15;99887.69;5107321;28;20416;-62
2023/08/28 00:47:56;;;;;;;2.50;1.40;;;;;;;22.65;66.50;99899.19;5079855;28;20297;-62
2023/08/28 00:50:22;;;;;;;2.93;1.33;;;;;;;22.67;66.51;99907.41;5058794;28;20208;-61
2023/08/28 00:52:48;;;;;;;5.27;1.60;;;;;;;22.65;66.50;99916.44;5119048;28;20911;-62
2023/08/28 00:55:13;;;;;;;5.40;1.23;;;;;;;22.65;66.19;99910.69;5108020;28;20174;-62
2023/08/28 00:57:39;;;;;;;5.20;1.47;;;;;;;22.66;66.11;99905.75;5090032;28;20283;-62
2023/08/28 01:00:36;;;;;;;11.57;1.60;;;;;;;22.64;66.04;99877.41;5104078;28;20252;-62
2023/08/28 01:03:01;;;;;;;6.20;1.70;;;;;;;22.65;66.14;99889.72;5107492;28;20458;-62
2023/08/28 01:05:57;;;;;;;3.87;1.47;;;;;;;22.64;66.70;99896.72;5104991;28;20431;-62
2023/08/28 01:08:53;;;;;;;4.40;1.60;;;;;;;22.63;65.86;99895.88;5093599;28;20212;-61
2023/08/28 01:12:07;;;;;;;3.20;1.27;;;;;;;22.63;65.74;99901.66;5091628;28;20393;-62
2023/08/28 01:14:33;;;;;;;4.03;1.60;;;;;;;22.64;65.72;99905.34;5049028;28;20897;-62
2023/08/28 01:17:03;;;;;;;2.80;1.33;;;;;;;22.63;66.24;99901.66;5111681;28;20423;-62
2023/08/28 01:19:33;;;;;;;3.73;1.20;;;;;;;22.63;65.65;99906.59;5093386;28;20480;-62
2023/08/28 01:22:11;;;;;;;2.50;1.40;;;;;;;22.62;65.65;99905.78;5090354;28;20491;-62
2023/08/28 01:24:50;;;;;;;2.37;1.40;;;;;;;22.63;66.26;99912.34;5072742;28;20416;-62
2023/08/28 01:27:16;;;;;;;3.30;1.40;;;;;;;22.62;65.78;99904.97;5072410;28;20404;-62
2023/08/28 01:29:41;;;;;;;3.90;1.53;;;;;;;22.61;66.14;99914.81;5093474;28;20787;-62
2023/08/28 01:32:07;;;;;;;8.63;1.60;;;;;;;22.60;65.70;99914.00;5072451;28;20427;-61
2023/08/28 01:34:33;;;;;;;2.87;1.30;;;;;;;22.60;65.77;99911.13;5089380;28;20186;-62
2023/08/28 01:37:05;;;;;;;4.80;1.90;;;;;;;22.60;66.00;99913.19;5111416;28;20537;-62
2023/08/28 01:39:36;;;;;;;5.93;1.33;;;;;;;22.59;65.51;99912.38;5076682;28;20675;-62
2023/08/28 01:42:02;;;;;;;2.97;1.60;;;;;;;22.59;65.79;99906.63;5108589;28;20551;-62
2023/08/28 01:44:28;;;;;;;3.53;1.30;;;;;;;22.59;65.55;99912.38;5109135;28;20573;-61
2023/08/28 01:46:53;;;;;;;3.63;1.33;;;;;;;22.59;66.01;99908.66;5093145;28;20180;-62
2023/08/28 01:49:18;;;;;;;3.40;1.27;;;;;;;22.58;65.40;99904.16;5092648;28;20213;-62
2023/08/28 01:51:44;;;;;;;2.80;1.30;;;;;;;22.57;65.88;99897.56;5111468;28;20169;-62
2023/08/28 01:54:09;;;;;;;5.03;1.40;;;;;;;22.56;65.88;99898.81;5080052;28;20182;-63
2023/08/28 01:56:35;;;;;;;3.20;1.37;;;;;;;22.55;65.90;99897.19;5109444;28;20181;-62
2023/08/28 01:59:02;;;;;;;3.43;1.30;;;;;;;22.55;66.13;99882.78;5074117;28;20187;-62
2023/08/28 02:01:27;;;;;;;4.00;1.90;;;;;;;22.57;65.82;99893.91;5090568;28;20181;-61
2023/08/28 02:03:53;;;;;;;7.10;1.50;;;;;;;22.57;65.34;99897.56;5092563;28;20432;-62
2023/08/28 02:06:18;;;;;;;4.13;1.60;;;;;;;22.58;65.63;99895.53;5089743;28;20236;-62
2023/08/28 02:08:44;;;;;;;3.90;1.40;;;;;;;22.57;65.39;99891.81;5074256;28;20189;-62
2023/08/28 02:11:09;;;;;;;3.40;1.20;;;;;;;22.57;64.93;99879.50;5090308;28;20658;-62
2023/08/28 02:13:35;;;;;;;4.80;1.53;;;;;;;22.56;65.30;99878.69;5072427;28;20182;-62
2023/08/28 02:16:01;;;;;;;2.63;1.60;;;;;;;22.56;65.78;99866.34;5090402;28;20174;-62
2023/08/28 02:18:26;;;;;;;5.53;1.53;;;;;;;22.56;65.36;99881.56;5092320;28;20194;-61
2023/08/28 02:20:52;;;;;;;2.33;1.30;;;;;;;22.56;65.77;99877.84;5089703;28;20250;-61
2023/08/28 02:23:17;;;;;;;2.87;1.33;;;;;;;22.55;65.63;99871.28;5091757;28;20205;-62
2023/08/28 02:25:44;;;;;;;3.60;1.27;;;;;;;22.55;65.61;99854.03;5099189;27;20170;-62
2023/08/28 02:28:09;;;;;;;2.93;1.60;;;;;;;22.54;65.20;99845.81;5084970;28;20255;-61
2023/08/28 02:30:34;;;;;;;2.67;1.30;;;;;;;22.54;65.79;99843.75;5091782;28;20429;-62
2023/08/28 02:33:00;;;;;;;4.00;1.47;;;;;;;22.53;65.91;99842.09;5102967;28;20709;-62
2023/08/28 02:35:25;;;;;;;8.80;1.33;;;;;;;22.52;66.10;99846.22;5100360;28;20669;-63
2023/08/28 02:37:51;;;;;;;2.37;1.47;;;;;;;22.51;65.21;99855.25;5089571;28;20701;-62
2023/08/28 02:40:16;;;;;;;3.47;1.60;;;;;;;22.52;65.65;99854.84;5089865;28;20508;-62
2023/08/28 02:42:42;;;;;;;4.23;1.10;;;;;;;22.51;65.54;99841.69;5103128;27;20233;-62
2023/08/28 02:45:08;;;;;;;3.60;1.53;;;;;;;22.52;65.38;99842.53;5105650;28;20185;-61
2023/08/28 02:47:33;;;;;;;4.70;2.00;;;;;;;22.53;65.12;99842.09;5110594;28;20482;-62
2023/08/28 02:49:59;;;;;;;2.83;1.37;;;;;;;22.51;65.57;99841.69;5105118;28;20202;-62
2023/08/28 02:52:24;;;;;;;9.63;1.63;;;;;;;22.49;65.79;99841.31;5090171;28;20174;-62
2023/08/28 02:54:49;;;;;;;7.40;1.53;;;;;;;22.50;65.80;99830.59;5109768;28;20174;-62
2023/08/28 02:57:15;;;;;;;8.80;1.57;;;;;;;22.50;65.82;99830.59;5106207;28;20190;-62
2023/08/28 02:59:40;;;;;;;2.90;1.53;;;;;;;22.50;65.47;99830.59;5074839;28;20178;-61
2023/08/28 03:02:06;;;;;;;4.33;1.97;;;;;;;22.49;65.18;99826.09;5082020;28;20205;-62
2023/08/28 03:04:34;;;;;;;2.50;1.60;;;;;;;22.49;65.06;99828.97;5109098;28;20179;-62
2023/08/28 03:06:59;;;;;;;4.43;1.70;;;;;;;22.49;65.66;99828.97;5110118;28;20178;-61
2023/08/28 03:09:25;;;;;;;4.00;1.33;;;;;;;22.48;65.31;99825.28;5097327;28;20444;-62
2023/08/28 03:11:51;;;;;;;2.60;1.20;;;;;;;22.48;65.38;99819.50;5104384;28;20284;-61
2023/08/28 03:14:16;;;;;;;4.40;1.50;;;;;;;22.48;65.29;99810.88;5093592;28;20437;-61
2023/08/28 03:16:42;;;;;;;2.40;1.00;;;;;;;22.48;65.39;99819.50;5088929;28;20158;-61
2023/08/28 03:19:07;;;;;;;2.67;1.30;;;;;;;22.48;65.41;99818.72;5090510;28;20244;-62
2023/08/28 03:21:35;;;;;;;2.43;1.40;;;;;;;22.48;65.63;99819.50;5087530;28;20241;-61
2023/08/28 03:24:01;;;;;;;4.20;1.33;;;;;;;22.48;65.12;99816.63;5088034;28;20257;-62
2023/08/28 03:26:28;;;;;;;3.80;1.60;;;;;;;22.47;64.76;99817.88;5088041;28;20416;-62
2023/08/28 03:28:54;;;;;;;2.60;1.03;;;;;;;22.48;64.98;99819.50;5090249;28;20235;-61
2023/08/28 03:31:19;;;;;;;4.53;1.23;;;;;;;22.47;64.77;99819.97;5086962;28;20436;-61
2023/08/28 03:33:44;;;;;;;2.70;1.37;;;;;;;22.47;65.17;99815.00;5104493;28;20660;-62
2023/08/28 03:36:10;;;;;;;9.90;1.63;;;;;;;22.48;64.97;99812.97;5109105;28;20785;-62
2023/08/28 03:38:35;;;;;;;2.40;1.30;;;;;;;22.47;64.85;99811.34;5109237;28;20222;-62
2023/08/28 03:41:01;;;;;;;2.90;1.23;;;;;;;22.47;64.85;99815.00;5098068;28;20691;-62
2023/08/28 03:43:26;;;;;;;2.67;1.37;;;;;;;22.47;64.85;99817.09;5108846;28;20695;-63
2023/08/28 03:45:52;;;;;;;2.93;1.40;;;;;;;22.46;65.12;99810.50;5104819;28;20186;-62
2023/08/28 03:48:17;;;;;;;4.30;1.47;;;;;;;22.47;65.08;99811.34;5089635;28;20162;-62
2023/08/28 03:50:42;;;;;;;3.43;1.40;;;;;;;22.45;64.85;99800.22;5122357;27;20200;-62
2023/08/28 03:53:08;;;;;;;6.60;1.40;;;;;;;22.45;65.15;99808.88;5108672;27;20181;-62
2023/08/28 03:55:33;;;;;;;4.00;1.57;;;;;;;22.44;65.36;99813.00;5109050;28;20166;-61
2023/08/28 03:58:02;;;;;;;4.27;1.50;;;;;;;22.44;64.77;99810.13;5103844;28;20182;-61
2023/08/28 04:00:27;;;;;;;2.30;1.27;;;;;;;22.44;64.79;99806.38;5088128;28;20629;-62
2023/08/28 04:02:53;;;;;;;2.83;1.80;;;;;;;22.45;65.34;99808.88;5096334;28;20522;-61
2023/08/28 04:05:19;;;;;;;4.10;1.57;;;;;;;22.43;64.95;99817.03;5092617;28;20198;-62
2023/08/28 04:07:44;;;;;;;3.77;1.40;;;;;;;22.43;64.94;99811.28;5088736;28;20158;-62
2023/08/28 04:10:10;;;;;;;4.40;1.03;;;;;;;22.43;64.93;99811.28;5089971;28;20197;-62
2023/08/28 04:12:36;;;;;;;2.57;1.30;;;;;;;22.43;64.71;99810.50;5088171;28;20171;-61
2023/08/28 04:15:02;;;;;;;3.50;1.50;;;;;;;22.43;64.81;99817.03;5068812;28;20440;-61
2023/08/28 04:17:27;;;;;;;2.10;1.30;;;;;;;22.41;65.07;99810.91;5089199;28;20189;-62
2023/08/28 04:19:54;;;;;;;2.57;1.60;;;;;;;22.42;64.79;99809.66;5086939;28;20483;-62
2023/08/28 04:22:19;;;;;;;2.30;1.33;;;;;;;22.42;64.60;99815.41;5090034;28;20902;-62
2023/08/28 04:24:45;;;;;;;2.83;1.47;;;;;;;22.41;65.04;99810.91;5088916;28;20416;-61
2023/08/28 04:27:12;;;;;;;2.30;1.13;;;;;;;22.40;64.75;99800.66;5106106;28;20685;-61
2023/08/28 04:29:37;;;;;;;2.37;1.23;;;;;;;22.40;64.69;99800.66;5111489;28;20928;-62
2023/08/28 04:32:03;;;;;;;2.50;1.60;;;;;;;22.39;64.67;99792.44;5122089;28;20419;-61
2023/08/28 04:34:28;;;;;;;3.33;1.50;;;;;;;22.40;64.88;99789.13;5096817;28;20178;-62
2023/08/28 04:36:54;;;;;;;4.67;1.30;;;;;;;22.39;64.73;99793.25;5086406;28;20507;-62
2023/08/28 04:39:20;;;;;;;4.07;1.20;;;;;;;22.38;64.91;99788.72;5087065;28;20189;-61
2023/08/28 04:41:46;;;;;;;4.77;1.60;;;;;;;22.37;65.41;99781.34;5105318;28;20255;-61
2023/08/28 04:44:11;;;;;;;3.93;1.20;;;;;;;22.36;65.37;99782.56;5111435;28;20185;-61
2023/08/28 04:46:36;;;;;;;1.77;1.10;;;;;;;22.35;65.13;99774.38;5107007;28;20173;-62
2023/08/28 04:49:02;;;;;;;3.03;1.40;;;;;;;22.35;65.05;99775.19;5107595;28;20202;-62
2023/08/28 04:51:27;;;;;;;7.50;1.47;;;;;;;22.35;65.00;99775.19;5109509;28;20190;-62
2023/08/28 04:53:53;;;;;;;2.57;1.00;;;;;;;22.35;64.69;99769.44;5100282;28;20724;-62
2023/08/28 04:56:18;;;;;;;2.70;1.23;;;;;;;22.35;64.99;99777.25;5108793;28;20561;-62
2023/08/28 04:58:44;;;;;;;4.30;1.40;;;;;;;22.36;64.58;99778.88;5100302;27;20201;-62
2023/08/28 05:01:09;;;;;;;2.37;1.20;;;;;;;22.36;64.48;99771.06;5092423;28;20182;-62
2023/08/28 05:03:36;;;;;;;3.70;1.50;;;;;;;22.35;64.83;99778.06;5099971;28;20206;-61
2023/08/28 05:06:02;;;;;;;2.33;1.23;;;;;;;22.34;64.81;99773.56;5108747;27;20493;-62
2023/08/28 05:08:27;;;;;;;4.03;1.30;;;;;;;22.34;64.93;99775.59;5101983;28;20419;-61
2023/08/28 05:10:53;;;;;;;3.77;1.30;;;;;;;22.33;65.15;99771.91;5110286;27;20196;-62
2023/08/28 05:13:19;;;;;;;2.27;1.00;;;;;;;22.33;64.69;99780.53;5110752;28;20170;-61
2023/08/28 05:15:44;;;;;;;3.83;1.40;;;;;;;22.34;65.18;99778.47;5110835;28;20158;-62
2023/08/28 05:18:11;;;;;;;7.77;1.73;;;;;;;22.33;64.64;99786.28;5110815;28;20181;-62
2023/08/28 05:20:37;;;;;;;4.17;1.40;;;;;;;22.33;64.93;99789.16;5106902;28;20586;-62
2023/08/28 05:23:03;;;;;;;2.30;1.10;;;;;;;22.32;64.78;99784.66;5110739;28;20535;-62
2023/08/28 05:25:29;;;;;;;4.07;1.30;;;;;;;22.33;64.82;99788.34;5111742;28;20177;-62
2023/08/28 05:27:54;;;;;;;2.40;1.50;;;;;;;22.32;64.73;99784.66;5110739;28;20208;-62
2023/08/28 05:30:20;;;;;;;1.80;1.00;;;;;;;22.33;64.50;99794.91;5102374;28;20447;-61
2023/08/28 05:32:45;;;;;;;2.20;1.20;;;;;;;22.33;64.42;99791.22;5101958;28;20174;-62
2023/08/28 05:35:11;;;;;;;5.40;1.40;;;;;;;22.32;64.53;99793.28;5110138;28;20182;-62
2023/08/28 05:37:36;;;;;;;2.27;1.23;;;;;;;22.31;65.04;99788.78;5110459;28;20208;-62
2023/08/28 05:40:02;;;;;;;3.63;1.20;;;;;;;22.31;64.73;99791.66;5101547;28;20229;-62
2023/08/28 05:42:27;;;;;;;3.87;1.20;;;;;;;22.31;65.00;99791.66;5089949;28;20305;-62
2023/08/28 05:44:53;;;;;;;5.37;1.33;;;;;;;22.30;64.46;99795.75;5109856;27;20181;-62
2023/08/28 05:47:18;;;;;;;3.00;1.40;;;;;;;22.30;64.30;99790.00;5131910;27;20184;-62
2023/08/28 05:49:44;;;;;;;4.37;1.20;;;;;;;22.28;64.95;99780.97;5112956;27;20262;-62
2023/08/28 05:52:09;;;;;;;8.40;1.20;;;;;;;22.28;64.73;99801.09;5111087;28;20790;-62
2023/08/28 05:54:34;;;;;;;6.33;1.40;;;;;;;22.28;64.64;99798.22;5110458;28;20211;-62
2023/08/28 05:57:00;;;;;;;4.00;1.20;;;;;;;22.26;64.73;99794.97;5107330;28;20184;-62
2023/08/28 05:59:25;;;;;;;3.03;0.90;;;;;;;22.26;64.91;99794.13;5091934;28;20193;-62
2023/08/28 06:01:51;;;;;;;4.40;1.30;;;;;;;22.25;64.50;99790.44;5093861;28;20245;-63
2023/08/28 06:04:16;;;;;;;3.13;1.30;;;;;;;22.26;64.40;99791.25;5110120;28;20188;-61
2023/08/28 06:06:42;;;;;;;3.60;1.20;;;;;;;22.25;64.73;99799.06;5107803;28;20170;-62
2023/08/28 06:09:07;;;;;;;2.10;1.10;;;;;;;22.26;64.38;99800.72;5091806;28;20209;-62
2023/08/28 06:11:33;;;;;;;6.13;1.40;;;;;;;22.26;64.49;99799.88;5090232;28;20163;-62
2023/08/28 06:13:59;;;;;;;4.67;1.50;;;;;;;22.25;64.49;99790.44;5073931;28;20841;-61
2023/08/28 06:16:24;;;;;;;3.93;1.40;;;;;;;22.25;65.01;99786.75;5090593;28;20261;-61
2023/08/28 06:18:50;;;;;;;10.03;1.50;;;;;;;22.25;64.60;99796.19;5090298;28;20892;-62
2023/08/28 06:21:15;;;;;;;3.10;1.70;;;;;;;22.24;64.91;99785.94;5091979;28;20693;-62
2023/08/28 06:23:41;;;;;;;4.53;1.43;;;;;;;22.23;65.02;99775.66;5105995;28;20708;-62
2023/08/28 06:26:07;;;;;;;2.57;1.20;;;;;;;22.23;65.16;99763.34;5110709;28;20186;-61
2023/08/28 06:28:33;;;;;;;3.00;1.33;;;;;;;22.21;64.97;99762.94;5100387;28;20178;-62
2023/08/28 06:30:58;;;;;;;2.47;1.53;;;;;;;22.20;64.84;99759.25;5090058;28;20498;-61
2023/08/28 06:33:24;;;;;;;2.00;1.20;;;;;;;22.20;64.87;99753.50;5107531;28;20181;-62
2023/08/28 06:35:49;;;;;;;3.27;1.47;;;;;;;22.20;64.10;99749.78;5111530;27;20161;-62
2023/08/28 06:38:15;;;;;;;2.60;1.70;;;;;;;22.19;64.71;99751.88;5098404;27;20182;-62
2023/08/28 06:40:40;;;;;;;4.13;1.90;;;;;;;22.18;64.51;99753.09;5092353;28;20182;-63
2023/08/28 06:43:06;;;;;;;5.70;1.87;;;;;;;22.19;64.60;99756.78;5084703;28;20570;-62
2023/08/28 06:45:31;;;;;;;3.33;1.50;;;;;;;22.19;64.51;99760.50;5072577;28;20182;-62
2023/08/28 06:47:58;;;;;;;4.13;1.50;;;;;;;22.19;63.99;99756.78;5092026;28;20240;-62
2023/08/28 06:50:24;;;;;;;7.63;1.37;;;;;;;22.17;64.16;99757.19;5117541;27;20698;-62
2023/08/28 06:52:49;;;;;;;2.87;1.53;;;;;;;22.16;64.67;99751.88;5129526;27;20413;-61
2023/08/28 06:55:15;;;;;;;3.80;1.33;;;;;;;22.17;64.59;99757.19;5108934;27;20438;-63
2023/08/28 06:57:40;;;;;;;2.63;1.43;;;;;;;22.16;64.76;99755.56;5102100;27;20201;-62
2023/08/28 07:00:08;;;;;;;2.50;1.30;;;;;;;22.17;64.64;99742.81;5111683;27;20158;-62
2023/08/28 07:02:35;;;;;;;2.90;1.50;;;;;;;22.15;64.43;99739.56;5105559;28;20194;-62
2023/08/28 07:05:01;;;;;;;3.73;1.40;;;;;;;22.15;64.15;99735.84;5104281;28;20460;-61
2023/08/28 07:07:26;;;;;;;3.10;1.57;;;;;;;22.15;64.06;99735.84;5103543;28;21169;-62
2023/08/28 07:09:52;;;;;;;5.00;1.53;;;;;;;22.15;64.43;99730.09;5108802;28;20836;-62
2023/08/28 07:12:17;;;;;;;3.20;1.50;;;;;;;22.13;64.16;99724.78;5116643;27;20620;-62
2023/08/28 07:14:42;;;;;;;2.97;1.60;;;;;;;22.13;64.22;99732.59;5090480;28;20642;-62
2023/08/28 07:17:08;;;;;;;4.33;1.50;;;;;;;22.13;64.00;99738.34;5089604;28;20618;-62
2023/08/28 07:19:33;;;;;;;3.93;1.30;;;;;;;22.13;64.59;99744.91;5089329;28;20508;-62
2023/08/28 07:22:00;;;;;;;2.90;1.37;;;;;;;22.13;64.59;99755.59;5091520;28;20248;-62
2023/08/28 07:24:26;;;;;;;8.90;1.87;;;;;;;22.13;64.38;99762.16;5089471;28;20182;-62
2023/08/28 07:26:52;;;;;;;2.93;1.40;;;;;;;22.14;63.79;99760.09;5089133;28;20408;-62
2023/08/28 07:29:17;;;;;;;4.83;1.80;;;;;;;22.13;64.62;99742.03;5088918;28;20401;-62
2023/08/28 07:31:43;;;;;;;5.37;1.50;;;;;;;22.11;64.07;99758.88;5094535;27;20227;-62
2023/08/28 07:34:08;;;;;;;4.10;1.30;;;;;;;22.12;64.15;99751.09;5109243;28;20169;-62
2023/08/28 07:36:37;;;;;;;3.03;1.20;;;;;;;22.11;64.29;99760.94;5107224;28;20178;-62
2023/08/28 07:39:02;;;;;;;6.43;1.50;;;;;;;22.12;64.29;99748.22;5095396;27;20204;-63
2023/08/28 07:41:28;;;;;;;3.70;1.80;;;;;;;22.11;63.97;99758.06;5129623;27;20438;-62
2023/08/28 07:43:53;;;;;;;4.40;1.90;;;;;;;22.10;64.44;99760.13;5101939;27;20186;-62
2023/08/28 07:46:18;;;;;;;2.70;1.50;;;;;;;22.11;63.93;99764.63;5088858;28;20171;-62
2023/08/28 07:48:44;;;;;;;3.63;1.30;;;;;;;22.09;64.13;99757.66;5088437;28;20179;-62
2023/08/28 07:51:09;;;;;;;4.17;1.50;;;;;;;22.08;64.58;99765.47;5088788;28;20162;-62
2023/08/28 07:53:35;;;;;;;4.50;1.63;;;;;;;22.09;64.26;99764.25;5102141;28;20188;-61
2023/08/28 07:56:02;;;;;;;6.10;1.30;;;;;;;22.07;63.91;99763.81;5096019;28;20190;-62
2023/08/28 07:58:29;;;;;;;4.00;1.63;;;;;;;22.07;63.73;99754.41;5089719;28;20185;-62
2023/08/28 08:00:55;;;;;;;2.70;1.33;;;;;;;22.06;64.29;99744.94;5089919;28;20890;-62
2023/08/28 08:03:20;;;;;;;3.80;1.53;;;;;;;22.06;64.02;99747.81;5089131;28;20491;-62
2023/08/28 08:05:47;;;;;;;4.97;1.57;;;;;;;22.06;64.28;99750.69;5087114;28;20174;-62
2023/08/28 08:08:12;;;;;;;3.00;1.50;;;;;;;22.06;64.02;99741.25;5089350;28;20182;-62
2023/08/28 08:10:38;;;;;;;4.03;1.83;;;;;;;22.04;64.12;99747.44;5087127;28;20478;-62
2023/08/28 08:13:04;;;;;;;3.90;1.53;;;;;;;22.03;64.05;99751.53;5090436;28;20170;-62
2023/08/28 08:15:30;;;;;;;4.93;1.90;;;;;;;22.03;64.03;99748.66;5088349;28;20205;-62
2023/08/28 08:17:55;;;;;;;5.80;1.93;;;;;;;22.04;63.84;99750.31;5088090;28;20424;-62
2023/08/28 08:20:21;;;;;;;5.27;1.80;;;;;;;22.04;63.85;99761.81;5090436;28;20178;-61
2023/08/28 08:22:46;;;;;;;5.20;1.80;;;;;;;22.03;63.66;99753.59;5107031;28;20263;-63
2023/08/28 08:25:12;;;;;;;3.43;1.50;;;;;;;22.02;63.66;99758.50;5101254;28;20182;-62
2023/08/28 08:27:38;;;;;;;5.67;1.93;;;;;;;22.02;63.44;99767.13;5088171;28;20186;-61
2023/08/28 08:30:08;;;;;;;3.10;1.63;;;;;;;22.01;63.57;99779.03;5088317;28;20166;-62
2023/08/28 08:32:33;;;;;;;3.73;1.67;;;;;;;22.01;63.24;99788.50;5102082;28;20170;-61
2023/08/28 08:34:59;;;;;;;4.50;1.57;;;;;;;22.00;63.32;99786.03;5108422;28;21097;-63
2023/08/28 08:37:26;;;;;;;5.87;1.53;;;;;;;22.02;63.26;99775.75;5103447;28;20182;-62
2023/08/28 08:39:52;;;;;;;3.33;1.53;;;;;;;22.02;63.60;99770.00;5108505;28;20505;-62
2023/08/28 08:42:17;;;;;;;2.80;1.63;;;;;;;22.01;63.31;99762.63;5088763;28;20463;-63
2023/08/28 08:44:43;;;;;;;3.67;1.70;;;;;;;22.00;63.54;99777.41;5091204;28;20186;-61
2023/08/28 08:47:08;;;;;;;4.53;2.10;;;;;;;22.00;63.23;99792.63;5088068;28;20159;-62
2023/08/28 08:49:33;;;;;;;3.40;1.53;;;;;;;22.00;63.31;99783.16;5077925;28;20209;-62
2023/08/28 08:52:05;;;;;;;3.90;1.70;;;;;;;22.00;63.42;99786.88;5052818;28;20952;-62
2023/08/28 08:54:34;;;;;;;6.43;1.47;;;;;;;21.99;63.38;99779.50;5072030;28;20181;-61
2023/08/28 08:57:00;;;;;;;2.90;1.53;;;;;;;21.98;63.06;99789.31;5089316;28;20847;-62
2023/08/28 08:59:26;;;;;;;4.43;1.60;;;;;;;21.99;63.31;99791.00;5097236;28;20445;-61
2023/08/28 09:01:51;;;;;;;3.33;1.53;;;;;;;22.00;62.90;99789.75;5122549;28;20326;-62
2023/08/28 09:04:17;;;;;;;4.00;1.30;;;;;;;21.99;63.43;99799.59;5106019;28;20178;-62
2023/08/28 09:06:42;;;;;;;4.03;1.83;;;;;;;21.96;62.66;99806.19;5108441;28;20184;-62
2023/08/28 09:09:09;;;;;;;6.53;1.60;;;;;;;21.97;63.47;99793.44;5088313;28;20240;-61
2023/08/28 09:11:36;;;;;;;4.20;1.73;;;;;;;21.96;63.25;99791.81;5089648;28;20708;-61
2023/08/28 09:14:02;;;;;;;4.43;1.40;;;;;;;21.96;63.26;99788.94;5069033;28;20454;-61
2023/08/28 09:16:27;;;;;;;2.97;1.70;;;;;;;21.94;62.71;99802.09;5088707;28;20428;-62
2023/08/28 09:18:53;;;;;;;7.00;1.57;;;;;;;21.94;63.07;99799.22;5086718;28;20189;-62
2023/08/28 09:21:18;;;;;;;5.00;2.13;;;;;;;21.91;62.96;99797.97;5087740;28;20226;-62
2023/08/28 09:23:50;;;;;;;4.50;1.83;;;;;;;21.93;62.97;99801.25;5087484;28;20558;-61
2023/08/28 09:26:17;;;;;;;4.07;2.10;;;;;;;21.95;62.60;99807.41;5087527;28;20167;-62
2023/08/28 09:29:05;;;;;;;4.10;1.63;;;;;;;21.93;62.45;99809.88;5095194;28;20439;-61
2023/08/28 09:31:31;;;;;;;4.67;1.73;;;;;;;21.95;62.85;99809.47;5095421;28;20427;-62
2023/08/28 09:33:56;;;;;;;3.57;1.60;;;;;;;21.94;62.58;99808.66;5106935;28;20436;-61
2023/08/28 09:36:22;;;;;;;5.40;1.70;;;;;;;21.93;63.04;99809.06;5111504;28;20415;-62
2023/08/28 09:38:47;;;;;;;3.80;1.70;;;;;;;21.84;63.46;99800.91;5112174;27;20173;-62
2023/08/28 09:41:13;;;;;;;6.47;1.83;;;;;;;21.88;62.97;99804.56;5092371;28;20174;-62
2023/08/28 09:43:38;;;;;;;5.47;1.77;;;;;;;21.90;62.78;99804.97;5072404;28;20225;-62
2023/08/28 09:46:04;;;;;;;4.57;1.37;;;;;;;21.92;62.65;99799.63;5072623;28;20232;-62
2023/08/28 09:48:34;;;;;;;4.83;1.77;;;;;;;21.92;63.03;99791.00;5092271;28;20189;-62
2023/08/28 09:51:06;;;;;;;5.70;1.90;;;;;;;21.93;62.99;99794.69;5090885;28;20476;-62
2023/08/28 09:53:32;;;;;;;5.93;1.77;;;;;;;21.88;63.64;99790.19;5090767;28;20407;-62
2023/08/28 09:55:57;;;;;;;3.40;1.50;;;;;;;21.85;62.96;99779.53;5103071;28;20435;-62
2023/08/28 09:58:27;;;;;;;3.97;1.93;;;;;;;21.85;63.61;99773.78;5101302;28;20602;-62
2023/08/28 10:00:56;;;;;;;3.77;1.43;;;;;;;21.89;62.85;99756.53;5090646;28;20159;-61
2023/08/28 10:03:23;;;;;;;3.87;1.50;;;;;;;21.92;63.32;99761.44;5099761;28;20467;-62
2023/08/28 10:05:49;;;;;;;4.27;1.93;;;;;;;21.76;63.42;99756.16;5100815;28;20436;-61
2023/08/28 10:08:15;;;;;;;4.77;1.53;;;;;;;21.86;63.57;99763.09;5089834;28;20501;-62
2023/08/28 10:10:42;;;;;;;3.90;1.60;;;;;;;21.90;63.33;99755.28;5091502;28;20428;-61
2023/08/28 10:13:13;;;;;;;4.43;1.70;;;;;;;21.90;63.73;99744.63;5089442;28;20762;-62
2023/08/28 10:16:05;;;;;;;2.50;1.30;;;;;;;21.89;63.70;99737.25;5089555;28;20507;-62
2023/08/28 10:18:59;;;;;;;4.83;1.73;;;;;;;21.88;63.71;99743.41;5057524;28;20448;-61
2023/08/28 10:21:25;;;;;;;3.10;1.70;;;;;;;21.89;63.27;99740.13;5073440;28;20458;-62
2023/08/28 10:23:50;;;;;;;2.80;1.40;;;;;;;21.91;63.72;99737.63;5107483;28;20456;-61
2023/08/28 10:26:16;;;;;;;3.83;1.40;;;;;;;21.92;63.68;99750.75;5107596;28;20185;-61
2023/08/28 10:28:41;;;;;;;3.83;1.53;;;;;;;21.69;64.32;99756.19;5087011;28;20193;-62
2023/08/28 10:31:07;;;;;;;2.77;1.20;;;;;;;21.82;64.27;99745.88;5094734;28;20182;-62
2023/08/28 10:33:33;;;;;;;5.63;1.40;;;;;;;21.89;63.46;99737.25;5086015;28;20190;-62
2023/08/28 10:35:58;;;;;;;5.17;1.80;;;;;;;21.91;63.88;99743.38;5074128;28;20178;-62
2023/08/28 10:38:24;;;;;;;8.23;2.10;;;;;;;21.92;63.44;99739.25;5089182;28;20209;-62
2023/08/28 10:40:50;;;;;;;5.10;2.33;;;;;;;21.79;64.10;99740.97;5094310;28;20219;-62
2023/08/28 10:43:17;;;;;;;3.20;2.17;;;;;;;21.77;64.44;99726.19;5093770;28;20210;-61
2023/08/28 10:45:42;;;;;;;3.20;1.43;;;;;;;21.71;64.31;99727.03;5094703;28;20430;-62
2023/08/28 10:48:08;;;;;;;5.57;1.97;;;;;;;21.62;64.21;99736.06;5071200;28;20439;-62
2023/08/28 10:50:37;;;;;;;3.80;1.70;;;;;;;21.67;64.80;99738.50;5091029;28;20202;-62
2023/08/28 10:53:03;;;;;;;3.40;1.53;;;;;;;21.60;64.54;99735.66;5102368;28;20333;-62
2023/08/28 10:55:29;;;;;;;8.30;1.70;;;;;;;21.64;65.19;99738.53;5108998;28;20416;-62
2023/08/28 10:57:54;;;;;;;2.70;1.43;;;;;;;21.66;64.45;99739.75;5083033;28;20523;-62
2023/08/28 11:00:21;;;;;;;6.10;2.03;;;;;;;21.70;64.44;99737.72;5086922;28;20711;-60
2023/08/28 11:03:10;;;;;;;5.13;1.57;;;;;;;21.76;64.33;99732.34;5099391;28;20861;-61
2023/08/28 11:05:37;;;;;;;4.07;1.70;;;;;;;21.79;64.41;99731.53;5102152;28;20472;-62
2023/08/28 11:08:07;;;;;;;4.20;1.80;;;;;;;21.83;63.61;99732.34;5098542;28;20428;-61
2023/08/28 11:10:33;;;;;;;4.00;1.70;;;;;;;21.80;63.75;99733.97;5105422;27;20451;-61
2023/08/28 11:13:02;;;;;;;3.50;1.70;;;;;;;21.66;63.99;99733.16;5084701;28;20440;-62
2023/08/28 11:15:43;;;;;;;3.00;1.43;;;;;;;21.76;63.47;99733.19;5091096;28;20186;-61
2023/08/28 11:18:27;;;;;;;5.23;2.20;;;;;;;21.81;63.83;99738.50;5092871;28;20471;-62
2023/08/28 11:20:53;;;;;;;4.80;1.70;;;;;;;21.78;64.14;99742.19;5089693;28;20773;-61
2023/08/28 11:23:25;;;;;;;4.37;1.40;;;;;;;21.77;63.39;99731.94;5089159;28;20545;-61
2023/08/28 11:25:51;;;;;;;3.53;1.93;;;;;;;21.79;63.33;99734.41;5089250;28;20447;-62
2023/08/28 11:28:47;;;;;;;3.17;1.50;;;;;;;21.88;63.43;99729.03;5088865;28;20429;-61
2023/08/28 11:31:13;;;;;;;4.10;1.80;;;;;;;21.75;63.03;99725.78;5100167;28;20197;-62
2023/08/28 11:33:41;;;;;;;3.17;1.50;;;;;;;21.75;63.61;99719.22;5097169;28;20786;-61